createdAt,value
2018-11-04T00:00:07.549Z,18.70
2018-11-04T00:02:14.214Z,19.70
2018-11-04T00:04:19.247Z,19.93
2018-11-04T00:06:24.421Z,19.07
2018-11-04T00:08:54.296Z,19.13
2018-11-04T00:10:58.483Z,19.80
2018-11-04T00:13:03.409Z,18.60
2018-11-04T00:15:08.408Z,20.17
2018-11-04T00:17:15.037Z,19.50
2018-11-04T00:19:19.216Z,19.67
2018-11-04T00:21:23.272Z,19.90
2018-11-04T00:23:27.280Z,20.10
2018-11-04T00:25:34.082Z,19.33
2018-11-04T00:27:38.603Z,19.90
2018-11-04T00:29:42.608Z,19.87
2018-11-04T00:31:46.716Z,19.83
2018-11-04T00:33:51.341Z,20.23
2018-11-04T00:35:55.318Z,19.53
2018-11-04T00:38:07.596Z,19.63
2018-11-04T00:40:13.370Z,20.27
2018-11-04T00:42:18.545Z,19.87
2018-11-04T00:44:22.538Z,19.03
2018-11-04T00:46:29.339Z,20.03
2018-11-04T00:48:33.401Z,20.57
2018-11-04T00:50:37.317Z,20.17
2018-11-04T00:52:45.379Z,19.63
2018-11-04T00:54:50.394Z,21.13
2018-11-04T00:56:54.424Z,20.87
2018-11-04T00:59:00.483Z,21.70
2018-11-04T01:01:04.667Z,21.40
2018-11-04T01:03:08.919Z,20.70
2018-11-04T01:05:13.775Z,21.07
2018-11-04T01:07:20.308Z,21.13
2018-11-04T01:09:24.251Z,20.73
2018-11-04T01:11:28.224Z,21.30
2018-11-04T01:13:32.761Z,21.13
2018-11-04T01:15:36.736Z,21.17
2018-11-04T01:17:42.331Z,20.97
2018-11-04T01:19:46.316Z,21.00
2018-11-04T01:21:50.281Z,21.53
2018-11-04T01:23:54.266Z,21.63
2018-11-04T01:26:10.731Z,21.20
2018-11-04T01:28:14.619Z,21.60
2018-11-04T01:30:18.891Z,22.60
2018-11-04T01:32:23.240Z,21.30
2018-11-04T01:34:27.776Z,20.90
2018-11-04T01:36:31.924Z,23.27
2018-11-04T01:38:37.803Z,22.93
2018-11-04T01:40:41.828Z,21.47
2018-11-04T01:42:47.955Z,22.27
2018-11-04T01:44:53.707Z,22.67
2018-11-04T01:47:00.464Z,22.87
2018-11-04T01:49:05.972Z,23.17
2018-11-04T01:51:14.431Z,22.47
2018-11-04T01:53:20.447Z,22.33
2018-11-04T01:55:24.856Z,23.13
2018-11-04T01:57:28.788Z,22.93
2018-11-04T01:59:33.577Z,23.00
2018-11-04T02:01:39.265Z,22.00
2018-11-04T02:03:43.201Z,22.33
2018-11-04T02:05:47.192Z,22.50
2018-11-04T02:07:53.099Z,24.17
2018-11-04T02:09:57.556Z,23.40
2018-11-04T02:12:02.187Z,23.43
2018-11-04T02:14:07.159Z,22.93
2018-11-04T02:16:12.731Z,23.27
2018-11-04T02:18:17.111Z,24.40
2018-11-04T02:20:22.480Z,22.97
2018-11-04T02:22:26.450Z,24.50
2018-11-04T02:24:30.413Z,25.00
2018-11-04T02:26:39.445Z,24.03
2018-11-04T02:28:46.001Z,23.63
2018-11-04T02:30:50.451Z,23.70
2018-11-04T02:32:55.308Z,24.47
2018-11-04T02:34:59.254Z,24.10
2018-11-04T02:37:04.519Z,23.87
2018-11-04T02:39:09.538Z,24.27
2018-11-04T02:41:13.484Z,25.13
2018-11-04T02:43:18.886Z,24.87
2018-11-04T02:45:25.820Z,24.67
2018-11-04T02:47:30.250Z,24.30
2018-11-04T02:49:34.247Z,23.73
2018-11-04T02:51:40.262Z,23.63
2018-11-04T02:53:46.032Z,24.63
2018-11-04T02:55:49.947Z,23.93
2018-11-04T02:57:53.968Z,25.20
2018-11-04T02:59:57.991Z,24.73
2018-11-04T03:02:02.088Z,23.60
2018-11-04T03:04:06.096Z,23.73
2018-11-04T03:06:10.091Z,24.63
2018-11-04T03:08:14.134Z,24.80
2018-11-04T03:10:19.596Z,24.40
2018-11-04T03:12:23.964Z,23.97
2018-11-04T03:14:27.987Z,24.70
2018-11-04T03:16:32.262Z,24.67
2018-11-04T03:18:36.240Z,24.00
2018-11-04T03:20:41.720Z,25.03
2018-11-04T03:22:45.718Z,25.03
2018-11-04T03:24:51.431Z,25.23
2018-11-04T03:26:55.440Z,25.40
2018-11-04T03:28:59.343Z,25.63
2018-11-04T03:31:04.732Z,26.13
2018-11-04T03:33:09.392Z,25.57
2018-11-04T03:35:13.632Z,25.50
2018-11-04T03:37:17.663Z,26.73
2018-11-04T03:39:21.594Z,26.50
2018-11-04T03:41:25.624Z,25.57
2018-11-04T03:43:31.179Z,25.87
2018-11-04T03:45:35.251Z,26.10
2018-11-04T03:47:41.518Z,26.37
2018-11-04T03:49:46.291Z,25.50
2018-11-04T03:51:51.059Z,26.33
2018-11-04T03:53:55.036Z,26.00
2018-11-04T03:55:58.989Z,27.03
2018-11-04T03:58:04.121Z,26.57
2018-11-04T04:00:12.835Z,25.37
2018-11-04T04:02:16.868Z,26.67
2018-11-04T04:04:20.982Z,25.40
2018-11-04T04:06:26.018Z,26.30
2018-11-04T04:08:29.991Z,26.07
2018-11-04T04:10:33.964Z,26.10
2018-11-04T04:12:38.335Z,27.73
2018-11-04T04:14:43.397Z,27.13
2018-11-04T04:16:47.439Z,28.17
2018-11-04T04:18:51.420Z,29.63
2018-11-04T04:21:08.395Z,28.13
2018-11-04T04:23:13.182Z,27.30
2018-11-04T04:25:17.108Z,28.00
2018-11-04T04:27:21.535Z,27.70
2018-11-04T04:29:25.576Z,28.50
2018-11-04T04:31:29.882Z,27.90
2018-11-04T04:33:33.948Z,28.67
2018-11-04T04:35:38.064Z,28.13
2018-11-04T04:37:43.132Z,29.33
2018-11-04T04:39:47.527Z,28.80
2018-11-04T04:41:51.497Z,28.27
2018-11-04T04:43:58.447Z,28.73
2018-11-04T04:46:02.391Z,30.20
2018-11-04T04:48:06.913Z,28.73
2018-11-04T04:50:12.539Z,28.43
2018-11-04T04:52:17.667Z,29.77
2018-11-04T04:54:21.683Z,29.90
2018-11-04T04:56:26.262Z,29.83
2018-11-04T04:58:30.238Z,30.07
2018-11-04T05:00:34.903Z,28.00
2018-11-04T05:02:39.544Z,28.93
2018-11-04T05:04:43.509Z,29.27
2018-11-04T05:06:47.467Z,28.63
2018-11-04T05:08:51.496Z,28.90
2018-11-04T05:10:58.838Z,28.93
2018-11-04T05:13:04.232Z,28.63
2018-11-04T05:15:08.621Z,28.00
2018-11-04T05:17:14.084Z,29.73
2018-11-04T05:19:18.111Z,29.00
2018-11-04T05:21:25.387Z,30.03
2018-11-04T05:23:30.346Z,29.40
2018-11-04T05:25:34.276Z,27.97
2018-11-04T05:27:38.287Z,29.60
2018-11-04T05:29:42.381Z,31.40
2018-11-04T05:31:47.287Z,30.27
2018-11-04T05:33:51.279Z,30.00
2018-11-04T05:35:55.301Z,29.43
2018-11-04T05:38:00.872Z,29.17
2018-11-04T05:40:05.996Z,29.67
2018-11-04T05:42:09.984Z,30.07
2018-11-04T05:44:14.924Z,29.80
2018-11-04T05:46:18.877Z,31.27
2018-11-04T05:48:22.859Z,29.47
2018-11-04T05:50:26.868Z,30.27
2018-11-04T05:52:30.939Z,29.77
2018-11-04T05:54:34.950Z,29.20
2018-11-04T05:56:42.433Z,29.70
2018-11-04T05:58:46.862Z,29.53
2018-11-04T06:00:51.169Z,30.13
2018-11-04T06:02:57.413Z,31.60
2018-11-04T06:05:01.883Z,30.53
2018-11-04T06:07:06.967Z,30.83
2018-11-04T06:09:11.359Z,29.83
2018-11-04T06:11:15.255Z,30.00
2018-11-04T06:13:19.175Z,31.03
2018-11-04T06:15:24.967Z,30.00
2018-11-04T06:17:28.986Z,31.17
2018-11-04T06:19:32.981Z,30.67
2018-11-04T06:21:36.907Z,29.73
2018-11-04T06:23:40.919Z,29.97
2018-11-04T06:25:44.988Z,31.07
2018-11-04T06:27:49.135Z,30.57
2018-11-04T06:29:53.073Z,29.93
2018-11-04T06:31:57.129Z,30.53
2018-11-04T06:34:01.091Z,30.30
2018-11-04T06:36:05.457Z,29.80
2018-11-04T06:38:09.430Z,30.93
2018-11-04T06:40:13.439Z,30.10
2018-11-04T06:42:17.508Z,28.63
2018-11-04T06:44:23.021Z,29.27
2018-11-04T06:46:27.179Z,30.37
2018-11-04T06:48:31.315Z,29.60
2018-11-04T06:50:35.364Z,28.70
2018-11-04T06:52:39.729Z,30.57
2018-11-04T06:54:43.693Z,31.03
2018-11-04T06:56:47.693Z,31.10
2018-11-04T06:58:52.228Z,31.10
2018-11-04T07:00:56.549Z,30.30
2018-11-04T07:03:00.523Z,29.67
2018-11-04T07:05:05.732Z,31.20
2018-11-04T07:07:09.727Z,30.30
2018-11-04T07:09:14.851Z,31.00
2018-11-04T07:11:18.787Z,30.03
2018-11-04T07:13:23.758Z,31.63
2018-11-04T07:15:28.711Z,29.80
2018-11-04T07:17:32.747Z,32.57
2018-11-04T07:19:36.651Z,30.80
2018-11-04T07:21:40.873Z,31.87
2018-11-04T07:23:44.901Z,30.07
2018-11-04T07:25:48.975Z,30.47
2018-11-04T07:27:52.844Z,32.73
2018-11-04T07:29:56.869Z,31.07
2018-11-04T07:32:08.126Z,30.43
2018-11-04T07:34:12.266Z,30.40
2018-11-04T07:36:23.015Z,30.80
2018-11-04T07:38:29.515Z,31.00
2018-11-04T07:40:37.398Z,31.83
2018-11-04T07:42:41.742Z,31.87
2018-11-04T07:44:46.484Z,31.20
2018-11-04T07:46:55.933Z,32.23
2018-11-04T07:49:01.117Z,31.70
2018-11-04T07:51:05.155Z,30.83
2018-11-04T07:53:09.262Z,32.43
2018-11-04T07:55:15.695Z,30.43
2018-11-04T07:57:19.682Z,31.40
2018-11-04T07:59:24.669Z,31.70
2018-11-04T08:01:28.778Z,31.50
2018-11-04T08:03:33.725Z,30.20
2018-11-04T08:05:37.674Z,30.97
2018-11-04T08:07:42.415Z,32.37
2018-11-04T08:09:46.367Z,31.80
2018-11-04T08:11:50.317Z,31.70
2018-11-04T08:13:54.468Z,31.40
2018-11-04T08:15:58.920Z,31.10
2018-11-04T08:18:03.864Z,32.03
2018-11-04T08:20:08.449Z,31.07
2018-11-04T08:22:13.548Z,31.87
2018-11-04T08:24:17.863Z,31.60
2018-11-04T08:26:24.482Z,30.40
2018-11-04T08:28:29.500Z,31.43
2018-11-04T08:30:34.768Z,30.33
2018-11-04T08:32:42.662Z,30.27
2018-11-04T08:34:48.087Z,31.50
2018-11-04T08:36:54.543Z,32.40
2018-11-04T08:38:59.198Z,31.63
2018-11-04T08:41:07.379Z,31.90
2018-11-04T08:43:12.739Z,31.33
2018-11-04T08:45:17.603Z,29.93
2018-11-04T08:47:22.256Z,31.03
2018-11-04T08:49:29.428Z,31.47
2018-11-04T08:51:40.983Z,31.13
2018-11-04T08:53:47.114Z,32.47
2018-11-04T08:55:51.749Z,31.13
2018-11-04T08:57:59.189Z,30.53
2018-11-04T09:00:05.514Z,32.80
2018-11-04T09:02:10.211Z,32.57
2018-11-04T09:04:16.071Z,31.20
2018-11-04T09:06:22.081Z,30.27
2018-11-04T09:08:38.393Z,30.83
2018-11-04T09:10:44.335Z,30.90
2018-11-04T09:12:51.416Z,31.10
2018-11-04T09:14:57.588Z,33.07
2018-11-04T09:17:02.984Z,32.37
2018-11-04T09:19:15.483Z,30.43
2018-11-04T09:21:20.806Z,33.27
2018-11-04T09:23:26.381Z,31.57
2018-11-04T09:25:31.296Z,31.03
2018-11-04T09:27:37.372Z,32.30
2018-11-04T09:29:41.411Z,31.70
2018-11-04T09:31:46.172Z,30.70
2018-11-04T09:33:50.108Z,30.80
2018-11-04T09:35:54.910Z,30.43
2018-11-04T09:37:58.891Z,30.83
2018-11-04T09:40:05.715Z,30.90
2018-11-04T09:42:10.823Z,31.47
2018-11-04T09:44:14.862Z,33.83
2018-11-04T09:46:20.521Z,30.97
2018-11-04T09:48:27.060Z,30.83
2018-11-04T09:50:30.984Z,30.77
2018-11-04T09:52:34.938Z,31.93
2018-11-04T09:54:39.541Z,31.40
2018-11-04T09:56:44.560Z,31.20
2018-11-04T10:01:07.546Z,31.27
2018-11-04T10:03:11.528Z,31.03
2018-11-04T10:05:16.139Z,32.00
2018-11-04T10:07:22.381Z,31.97
2018-11-04T10:09:31.979Z,30.47
2018-11-04T10:11:36.691Z,31.73
2018-11-04T10:13:41.460Z,30.90
2018-11-04T10:15:46.312Z,31.63
2018-11-04T10:17:51.945Z,30.83
2018-11-04T10:19:56.014Z,31.03
2018-11-04T10:22:01.007Z,30.80
2018-11-04T10:24:05.813Z,29.93
2018-11-04T10:26:12.310Z,30.37
2018-11-04T10:28:16.908Z,30.77
2018-11-04T10:30:24.849Z,31.30
2018-11-04T10:32:30.677Z,32.37
2018-11-04T10:34:38.135Z,29.60
2018-11-04T10:36:43.264Z,32.00
2018-11-04T10:38:47.222Z,31.30
2018-11-04T10:40:53.812Z,30.13
2018-11-04T10:42:58.275Z,31.23
2018-11-04T10:45:02.199Z,31.60
2018-11-04T10:47:06.470Z,31.23
2018-11-04T10:49:12.197Z,30.90
2018-11-04T10:51:16.255Z,30.57
2018-11-04T10:53:20.943Z,29.77
2018-11-04T10:55:33.738Z,29.80
2018-11-04T10:57:37.825Z,29.53
2018-11-04T10:59:43.151Z,29.40
2018-11-04T11:01:50.251Z,28.87
2018-11-04T11:03:54.763Z,29.13
2018-11-04T11:05:58.747Z,29.47
2018-11-04T11:08:02.772Z,29.37
2018-11-04T11:10:09.219Z,30.07
2018-11-04T11:12:13.840Z,29.70
2018-11-04T11:14:17.988Z,29.60
2018-11-04T11:16:23.678Z,28.97
2018-11-04T11:18:28.116Z,29.90
2018-11-04T11:20:35.432Z,28.97
2018-11-04T11:22:41.722Z,27.90
2018-11-04T11:24:45.841Z,28.53
2018-11-04T11:26:49.807Z,28.27
2018-11-04T11:28:55.238Z,30.00
2018-11-04T11:30:59.586Z,28.87
2018-11-04T11:33:06.807Z,28.30
2018-11-04T11:35:13.090Z,28.73
2018-11-04T11:37:18.024Z,28.63
2018-11-04T11:39:22.311Z,28.30
2018-11-04T11:41:26.323Z,28.37
2018-11-04T11:43:31.115Z,28.63
2018-11-04T11:45:36.275Z,28.27
2018-11-04T11:47:42.375Z,28.23
2018-11-04T11:49:48.427Z,27.87
2018-11-04T11:51:53.923Z,28.00
2018-11-04T11:53:59.930Z,27.47
2018-11-04T11:56:04.243Z,27.00
2018-11-04T11:58:10.328Z,26.73
2018-11-04T12:00:15.947Z,26.00
2018-11-04T12:02:20.122Z,27.53
2018-11-04T12:04:26.590Z,26.97
2018-11-04T12:06:31.498Z,26.17
2018-11-04T12:08:37.955Z,26.73
2018-11-04T12:10:44.411Z,25.53
2018-11-04T12:12:48.356Z,27.40
2018-11-04T12:14:53.961Z,25.30
2018-11-04T12:16:58.571Z,24.73
2018-11-04T12:19:09.192Z,25.80
2018-11-04T12:21:13.147Z,25.47
2018-11-04T12:23:17.340Z,26.10
2018-11-04T12:25:22.564Z,24.70
2018-11-04T12:27:29.216Z,25.90
2018-11-04T12:29:33.324Z,25.60
2018-11-04T12:31:37.662Z,26.03
2018-11-04T12:33:52.403Z,25.07
2018-11-04T12:36:18.265Z,25.77
2018-11-04T12:38:22.280Z,26.57
2018-11-04T12:40:26.282Z,24.90
2018-11-04T12:42:30.400Z,25.73
2018-11-04T12:44:37.703Z,25.33
2018-11-04T12:46:42.032Z,25.07
2018-11-04T12:48:46.012Z,24.93
2018-11-04T12:50:56.176Z,24.57
2018-11-04T12:53:00.162Z,24.67
2018-11-04T12:55:07.196Z,24.27
2018-11-04T12:57:12.386Z,24.43
2018-11-04T12:59:17.579Z,23.93
2018-11-04T13:01:25.985Z,24.57
2018-11-04T13:03:30.000Z,24.47
2018-11-04T13:05:35.782Z,23.63
2018-11-04T13:07:46.812Z,25.03
2018-11-04T13:09:51.464Z,22.70
2018-11-04T13:11:56.305Z,23.73
2018-11-04T13:15:03.799Z,23.73
2018-11-04T13:17:09.100Z,23.87
2018-11-04T13:19:20.451Z,23.13
2018-11-04T13:21:25.541Z,22.17
2018-11-04T13:23:33.598Z,21.67
2018-11-04T13:25:41.985Z,21.57
2018-11-04T13:27:45.974Z,22.10
2018-11-04T13:29:55.306Z,21.77
2018-11-04T13:32:01.168Z,22.47
2018-11-04T13:34:06.472Z,21.03
2018-11-04T13:36:10.547Z,23.17
2018-11-04T13:38:16.259Z,21.40
2018-11-04T13:40:23.041Z,21.97
2018-11-04T13:42:29.301Z,20.73
2018-11-04T13:44:33.336Z,22.77
2018-11-04T13:46:40.851Z,21.20
2018-11-04T13:48:47.227Z,20.93
2018-11-04T13:50:52.050Z,20.97
2018-11-04T13:52:56.077Z,20.37
2018-11-04T13:55:01.072Z,20.53
2018-11-04T13:57:05.827Z,20.73
2018-11-04T13:59:09.819Z,20.27
2018-11-04T14:01:13.872Z,21.23
2018-11-04T14:03:18.904Z,20.97
2018-11-04T14:05:25.679Z,20.47
2018-11-04T14:07:29.735Z,20.43
2018-11-04T14:09:36.235Z,18.67
2018-11-04T14:11:42.233Z,18.67
2018-11-04T14:13:46.356Z,19.60
2018-11-04T14:15:50.863Z,18.77
2018-11-04T14:17:54.866Z,18.80
2018-11-04T14:20:00.363Z,17.50
2018-11-04T14:22:04.336Z,18.93
2018-11-04T14:24:08.442Z,18.60
2018-11-04T14:26:13.410Z,18.80
2018-11-04T14:28:18.461Z,18.10
2018-11-04T14:30:24.573Z,19.00
2018-11-04T14:32:28.600Z,18.47
2018-11-04T14:34:33.552Z,18.20
2018-11-04T14:36:38.230Z,18.00
2018-11-04T14:38:46.435Z,17.30
2018-11-04T14:40:51.595Z,16.93
2018-11-04T14:43:01.325Z,18.07
2018-11-04T14:45:07.274Z,16.77
2018-11-04T14:47:11.219Z,17.33
2018-11-04T14:49:15.599Z,17.20
2018-11-04T14:51:21.025Z,17.63
2018-11-04T14:53:24.926Z,16.87
2018-11-04T14:55:28.944Z,15.77
2018-11-04T14:57:33.649Z,16.20
2018-11-04T14:59:43.613Z,16.23
2018-11-04T15:01:49.533Z,15.50
2018-11-04T15:03:54.334Z,15.03
2018-11-04T15:05:58.635Z,15.07
2018-11-04T15:08:04.599Z,14.83
2018-11-04T15:10:11.140Z,15.07
2018-11-04T15:12:16.919Z,15.17
2018-11-04T15:14:21.464Z,15.03
2018-11-04T15:16:26.669Z,14.77
2018-11-04T15:18:30.704Z,15.00
2018-11-04T15:20:34.651Z,13.40
2018-11-04T15:22:42.670Z,13.87
2018-11-04T15:24:48.253Z,14.10
2018-11-04T15:26:52.211Z,13.50
2018-11-04T15:28:56.776Z,13.30
2018-11-04T15:31:01.260Z,13.43
2018-11-04T15:33:11.093Z,12.67
2018-11-04T15:37:32.045Z,11.93
2018-11-04T15:39:36.380Z,11.07
2018-11-04T15:41:41.042Z,11.67
2018-11-04T15:43:46.990Z,11.47
2018-11-04T15:45:52.779Z,10.47
2018-11-04T15:47:57.383Z,9.50
2018-11-04T15:50:01.696Z,10.20
2018-11-04T15:52:06.622Z,10.97
2018-11-04T15:54:11.559Z,10.03
2018-11-04T15:56:16.820Z,9.60
2018-11-04T15:58:22.658Z,10.30
2018-11-04T16:00:28.428Z,9.90
2018-11-04T16:02:32.412Z,10.20
2018-11-04T16:04:44.543Z,10.17
2018-11-04T16:06:43.255Z,9.93
2018-11-04T16:08:48.196Z,10.83
2018-11-04T16:10:55.208Z,10.33
2018-11-04T16:12:59.244Z,10.60
2018-11-04T16:15:03.281Z,11.20
2018-11-04T16:17:10.403Z,11.03
2018-11-04T16:19:14.357Z,10.73
2018-11-04T16:21:19.050Z,10.80
2018-11-04T16:23:28.470Z,11.13
2018-11-04T16:25:34.285Z,10.63
2018-11-04T16:27:40.892Z,11.57
2018-11-04T16:29:46.210Z,10.77
2018-11-04T16:31:50.768Z,11.33
2018-11-04T16:33:54.753Z,10.50
2018-11-04T16:35:59.419Z,10.77
2018-11-04T16:38:06.352Z,10.30
2018-11-04T16:40:10.584Z,9.97
2018-11-04T16:42:15.812Z,9.97
2018-11-04T16:44:22.626Z,10.37
2018-11-04T16:46:29.315Z,9.97
2018-11-04T16:48:34.188Z,10.70
2018-11-04T16:50:38.307Z,11.00
2018-11-04T16:52:45.824Z,10.23
2018-11-04T16:54:51.331Z,9.53
2018-11-04T16:56:59.383Z,9.80
2018-11-04T16:59:04.712Z,10.40
2018-11-04T17:01:09.641Z,9.87
2018-11-04T17:03:14.468Z,10.80
2018-11-04T17:05:19.678Z,10.50
2018-11-04T17:07:24.367Z,10.53
2018-11-04T17:09:30.367Z,10.47
2018-11-04T17:11:35.802Z,10.43
2018-11-04T17:13:40.445Z,10.47
2018-11-04T17:15:45.458Z,10.80
2018-11-04T17:17:49.498Z,11.47
2018-11-04T17:19:53.568Z,10.77
2018-11-04T17:22:00.695Z,10.90
2018-11-04T17:24:05.716Z,12.00
2018-11-04T17:26:21.211Z,12.17
2018-11-04T17:28:26.759Z,12.07
2018-11-04T17:30:32.304Z,12.10
2018-11-04T17:32:37.099Z,12.10
2018-11-04T17:34:41.740Z,12.43
2018-11-04T17:36:47.065Z,11.90
2018-11-04T17:38:53.346Z,12.37
2018-11-04T17:40:59.424Z,12.73
2018-11-04T17:43:08.081Z,11.87
2018-11-04T17:45:16.326Z,12.37
2018-11-04T17:47:24.115Z,12.67
2018-11-04T17:49:32.397Z,12.23
2018-11-04T17:51:39.096Z,12.60
2018-11-04T17:53:44.685Z,12.33
2018-11-04T17:55:50.239Z,12.20
2018-11-04T17:57:56.528Z,12.63
2018-11-04T18:00:02.196Z,12.20
2018-11-04T18:02:12.332Z,11.73
2018-11-04T18:04:17.776Z,12.03
2018-11-04T18:06:23.606Z,12.70
2018-11-04T18:08:28.436Z,12.70
2018-11-04T18:10:36.743Z,11.67
2018-11-04T18:12:46.064Z,11.73
2018-11-04T18:14:51.637Z,12.23
2018-11-04T18:16:57.101Z,12.07
2018-11-04T18:19:02.686Z,11.47
2018-11-04T18:21:08.325Z,11.73
2018-11-04T18:23:15.124Z,11.53
2018-11-04T18:25:21.272Z,11.60
2018-11-04T18:27:25.979Z,11.47
2018-11-04T18:29:33.722Z,12.20
2018-11-04T18:31:38.651Z,11.43
2018-11-04T18:33:46.595Z,11.67
2018-11-04T18:35:51.213Z,11.43
2018-11-04T18:37:55.163Z,11.63
2018-11-04T18:39:59.207Z,13.10
2018-11-04T18:42:04.417Z,11.73
2018-11-04T18:44:09.064Z,11.90
2018-11-04T18:46:13.632Z,11.53
2018-11-04T18:48:17.655Z,11.90
2018-11-04T18:50:21.645Z,12.83
2018-11-04T18:52:25.739Z,12.60
2018-11-04T18:54:29.716Z,12.33
2018-11-04T18:56:33.826Z,12.83
2018-11-04T18:58:40.200Z,12.77
2018-11-04T19:00:45.935Z,12.50
2018-11-04T19:02:50.275Z,13.33
2018-11-04T19:04:55.503Z,12.50
2018-11-04T19:06:59.495Z,13.00
2018-11-04T19:09:04.341Z,12.83
2018-11-04T19:11:10.585Z,12.70
2018-11-04T19:13:16.269Z,11.87
2018-11-04T19:15:25.966Z,12.93
2018-11-04T19:17:30.520Z,13.43
2018-11-04T19:19:35.132Z,12.27
2018-11-04T19:21:40.506Z,12.17
2018-11-04T19:23:44.988Z,11.73
2018-11-04T19:25:50.547Z,13.03
2018-11-04T19:27:55.223Z,13.27
2018-11-04T19:29:59.592Z,13.07
2018-11-04T19:32:05.503Z,13.00
2018-11-04T19:34:11.029Z,13.60
2018-11-04T19:36:15.548Z,12.23
2018-11-04T19:38:21.209Z,12.67
2018-11-04T19:40:25.187Z,12.93
2018-11-04T19:42:31.703Z,12.40
2018-11-04T19:44:40.076Z,12.07
2018-11-04T19:46:44.496Z,13.77
2018-11-04T19:48:49.713Z,13.00
2018-11-04T19:51:01.167Z,13.13
2018-11-04T19:53:05.806Z,11.73
2018-11-04T19:55:11.068Z,12.63
2018-11-04T19:57:16.251Z,12.33
2018-11-04T19:59:27.481Z,13.10
2018-11-04T20:01:33.454Z,13.27
2018-11-04T20:03:40.435Z,12.13
2018-11-04T20:05:48.472Z,13.13
2018-11-04T20:07:55.259Z,13.27
2018-11-04T20:09:59.834Z,13.43
2018-11-04T20:12:05.498Z,13.10
2018-11-04T20:14:15.963Z,13.27
2018-11-04T20:16:22.651Z,13.37
2018-11-04T20:20:39.712Z,12.63
2018-11-04T20:22:45.335Z,12.70
2018-11-04T20:24:55.475Z,12.07
2018-11-04T20:26:59.456Z,12.60
2018-11-04T20:29:04.048Z,12.77
2018-11-04T20:33:20.210Z,12.80
2018-11-04T20:35:28.655Z,11.77
2018-11-04T20:37:34.392Z,12.73
2018-11-04T20:39:43.996Z,12.70
2018-11-04T20:41:55.051Z,12.37
2018-11-04T20:46:15.220Z,12.23
2018-11-04T20:48:28.908Z,13.03
2018-11-04T20:50:37.978Z,13.37
2018-11-04T20:52:41.990Z,13.37
2018-11-04T20:54:46.098Z,13.23
2018-11-04T20:56:55.775Z,13.60
2018-11-04T20:59:02.524Z,12.97
2018-11-04T21:01:08.292Z,13.10
2018-11-04T21:03:12.319Z,13.40
2018-11-04T21:05:16.838Z,13.10
2018-11-04T21:07:36.236Z,12.50
2018-11-04T21:09:42.339Z,12.73
2018-11-04T21:11:47.508Z,12.60
2018-11-04T21:13:52.400Z,12.93
2018-11-04T21:15:57.328Z,12.73
2018-11-04T21:18:03.426Z,12.47
2018-11-04T21:20:11.327Z,13.83
2018-11-04T21:22:15.323Z,13.57
2018-11-04T21:24:20.509Z,13.47
2018-11-04T21:26:24.539Z,13.30
2018-11-04T21:28:29.302Z,13.20
2018-11-04T21:30:33.776Z,12.93
2018-11-04T21:32:39.635Z,14.17
2018-11-04T21:34:49.409Z,13.27
2018-11-04T21:36:53.405Z,13.43
2018-11-04T21:38:57.815Z,13.97
2018-11-04T21:41:02.583Z,13.60
2018-11-04T21:43:06.810Z,13.47
2018-11-04T21:45:14.453Z,13.93
2018-11-04T21:47:19.389Z,13.67
2018-11-04T21:49:23.445Z,13.60
2018-11-04T21:51:30.016Z,14.70
2018-11-04T21:53:37.249Z,14.37
2018-11-04T21:55:42.474Z,14.20
2018-11-04T21:57:47.530Z,14.07
2018-11-04T21:59:51.780Z,15.13
2018-11-04T22:01:55.783Z,13.73
2018-11-04T22:04:01.933Z,13.80
2018-11-04T22:06:06.064Z,13.87
2018-11-04T22:08:10.060Z,14.73
2018-11-04T22:10:15.378Z,13.40
2018-11-04T22:12:23.010Z,14.13
2018-11-04T22:14:29.080Z,13.30
2018-11-04T22:16:34.585Z,14.53
2018-11-04T22:18:39.441Z,14.27
2018-11-04T22:20:50.360Z,13.30
2018-11-04T22:22:54.337Z,13.93
2018-11-04T22:24:59.155Z,14.80
2018-11-04T22:27:03.489Z,13.37
2018-11-04T22:29:07.553Z,14.53
2018-11-04T22:31:15.988Z,14.17
2018-11-04T22:33:23.929Z,14.13
2018-11-04T22:35:27.895Z,14.17
2018-11-04T22:37:31.853Z,13.97
2018-11-04T22:39:36.427Z,14.13
2018-11-04T22:41:40.908Z,13.67
2018-11-04T22:43:49.423Z,13.77
2018-11-04T22:45:55.707Z,13.43
2018-11-04T22:48:00.548Z,14.87
2018-11-04T22:50:05.401Z,14.00
2018-11-04T22:52:09.316Z,13.83
2018-11-04T22:54:14.035Z,14.87
2018-11-04T22:56:20.105Z,13.60
2018-11-04T22:58:24.438Z,14.17
2018-11-04T23:00:33.772Z,13.53
2018-11-04T23:02:44.566Z,13.77
2018-11-04T23:04:54.586Z,14.27
2018-11-04T23:06:59.231Z,14.53
2018-11-04T23:09:04.124Z,13.50
2018-11-04T23:11:09.172Z,15.23
2018-11-04T23:13:20.083Z,14.70
2018-11-04T23:15:24.943Z,13.93
2018-11-04T23:17:29.078Z,14.60
2018-11-04T23:19:39.684Z,14.13
2018-11-04T23:21:45.420Z,14.90
2018-11-04T23:23:50.376Z,14.80
2018-11-04T23:25:55.120Z,14.20
2018-11-04T23:27:59.072Z,14.17
2018-11-04T23:30:18.963Z,14.20
2018-11-04T23:32:22.862Z,14.27
2018-11-04T23:34:27.880Z,14.70
2018-11-04T23:36:32.643Z,14.17
2018-11-04T23:38:37.248Z,14.60
2018-11-04T23:40:41.313Z,15.20
2018-11-04T23:42:45.571Z,13.63
2018-11-04T23:44:50.162Z,13.50
2018-11-04T23:46:54.439Z,14.23
2018-11-04T23:48:58.363Z,13.97
2018-11-04T23:51:02.639Z,15.00
2018-11-04T23:53:06.597Z,14.17
2018-11-04T23:55:11.493Z,14.20
2018-11-04T23:57:15.847Z,14.43
2018-11-04T23:59:19.810Z,14.30
